ADDS METAR Data INFO
IDs: Format: Raw Decoded Include TAF

Data at: 0254 UTC 21 Oct 2017

PAYA 210248Z 06005KT 10SM CLR 01/00 A2953
PAYA 210148Z 08003KT 10SM CLR 02/01 A2935
PAYA 210116Z 07005KT 10SM FEW005 FEW055 SCT070 03/01 A2934
PAYA 202348Z 10007KT 10SM FEW044 BKN070 OVC110 04/02 A2933
PAYA 202300Z 08007KT 10SM SCT100 06/03 A2932
PAYA 202053Z 07006KT 10SM -RA OVC060 04/03 A2929 RMK TSNO
PAYA 201952Z 08004KT 10SM FEW030 OVC060 03/02 A2928 RMK TSNO
PAYA 201754Z 09005KT 9SM -SN SCT017 OVC060 02/01 A2923
PAYA 201654Z 00000KT 5SM -RA BR FEW017 BKN022 OVC027 02/01 A2922
PAYA 201554Z 10004KT 6SM -RA BR OVC020 02/01 A2922
PAYA 201453Z VRB03KT 10SM -RA OVC039 03/01 A2920
PAYA 201353Z 08003KT 10SM OVC075 02/01 A2918
PAYA 201257Z 04003KT 10SM OVC070 02/01 A2918 RMK TSNO
PAYA 201154Z 06004KT 10SM OVC065 02/01 A2916 RMK TSNO
PAYA 201056Z 06004KT 10SM BKN060 02/01 A2915 RMK TSNO
PAYA 200954Z 00000KT 10SM SCT050 03/03 A2914 RMK TSNO
PAYA 200900Z 10003KT 10SM OVC045 03/02 A2912 RMK TSNO
PAYA 200755Z 00000KT 10SM SCT024 OVC036 03/03 A2910 RMK TSNO
PAYA 200651Z 240003KT 8SM -RA BKN015 OVC028 04/03 A2908
PAYA 200546Z 29003KT 6SM -RA BR OVC018 03/02 A2905
PAYA 200514Z 00000KT 10SM OVC018 04/03 A2904
PAYA 200350Z 00000KT 10SM OVC021 04/02 A2902
PAYA 200252Z 050004KT 10SM -RA OVC022 04/02 A2900
PAYA 200147Z 00000KT 7SM -RA OVC026 05/03 A2900
PAYA 200053Z 050006KT 6SM -RA BKN023 OVC028 05/02 A2899
PAYA 200000Z 100005KT 6SM -RA FEW027 BKN033 OVC043 07/02 A2898
PAYA 192327Z 360004KT 10SM OVC055 07/03 A2897
PAYA 192154Z VRB05KT 7SM -RA BKN034 OVC042 08/01 A2897
PAYA 192053Z 08007KT 10SM OVC047 09/M01 A2895
PAYA 191958Z 07008KT 10SM OVC060 09/M01 A2894
PAYA 191656Z 36006KT 10SM OVC046 05/02 A2891 RMK TSNO
PAYA 191634Z VRB03KT 10SM BKN048 OVC060 04/04 A2892 RMK TSNO
PAYA 191509Z 00000KT 10SM -RA OVC033 04/03 A2891 RMK TSNO